Liberty Lake, WA (99019)

3:45 PM PST on January 25, 2015 (GMT -0800)
Trailhead Golf Course | Change Station
CLOSE
Current Station
Personal Weather Station
Location: Liberty Lake, WA
Elevation: 2073 ft
Nearby Weather Stations

Elev 2073 ft 47.67 °N, 117.10 °W | Updated 13 seconds ago

Clear
Clear
57.7 °F
Feels Like 57.7 °F
N
2.0
Wind Variable Wind from North
Gusts 3.0 mph

Today
High -- | Low -- °F
--% Chance of Precip.
Yesterday
High -- | Low -- °F
Precip. -- in
7:23 AM 4:38 PM
Waxing Crescent, 37% visible
Pressure 30.21 in
Visibility 10.0 miles
Clouds Clear
Dew Point 47 °F
Humidity 68%
Rainfall 0.00 in
Snow Depth Not available.
UV 1 out of 12
Pollen .90 out of 12
Air Quality Not available.
Flu Activity Not available.
METAR KSFF 252253Z 02003KT 10SM CLR 13/07 A3020 RMK AO2 SLP229 T01330067

More Conditions Fewer Conditions

Pressure 30.21 in
Visibility 10.0 miles
Clouds Clear
Dew Point 47 °F
Humidity 68%
Rainfall 0.00 in
Snow Depth Not available.
UV 1 out of 12
Pollen .90 out of 12
Air Quality Not available.
Flu Activity Not available.
METAR KSFF 252253Z 02003KT 10SM CLR 13/07 A3020 RMK AO2 SLP229 T01330067

More Conditions Fewer Conditions

10-Day Weather Forecast

Almanac

Astronomy

Jan. 25, 2015 Rise Set
Actual Time
Civil Twilight
Nautical Twilight
Astronomical Twilight
Moon
Length of Visible Light
Length of Day
Tomorrow will be .
, % of the Moon is Illuminated

Today's Extremes

State Highs State Lows

Community

WunderPhotos

Upload Photos

1,790,048 photos uploaded!

WunderBlogs® & News

Nearby

Air Quality

  Air Quality AQ Index Pollutant
Not available.

Snow Depth

Station Depth Elevation

Earthquake Activity

City Distance Mag. Time & Date
Minimum magnitude displayed is 2.5.

Coastal Water Temperatures

Place Temperature

Nearby Weather Stations